sensor_id;sensor_type;location;lat;lon;timestamp;pressure;altitude;pressure_sealevel;temperature;humidity
32853;BME280;20515;51.704;5.700;2022-08-02T00:00:14;53643.72;;;-143.74;100.00
32853;BME280;20515;51.704;5.700;2022-08-02T00:02:42;53645.75;;;-143.74;100.00
32853;BME280;20515;51.704;5.700;2022-08-02T00:05:08;53641.69;;;-143.74;100.00
32853;BME280;20515;51.704;5.700;2022-08-02T00:07:34;53641.69;;;-143.74;100.00
32853;BME280;20515;51.704;5.700;2022-08-02T00:09:59;53645.75;;;-143.74;100.00
32853;BME280;20515;51.704;5.700;2022-08-02T00:12:24;53645.75;;;-143.74;100.00
32853;BME280;20515;51.704;5.700;2022-08-02T00:14:50;53643.72;;;-143.74;100.00
32853;BME280;20515;51.704;5.700;2022-08-02T00:17:15;53649.84;;;-143.74;100.00
32853;BME280;20515;51.704;5.700;2022-08-02T00:19:41;53641.69;;;-143.74;100.00
32853;BME280;20515;51.704;5.700;2022-08-02T00:22:06;53643.72;;;-143.74;100.00
32853;BME280;20515;51.704;5.700;2022-08-02T00:24:31;53639.63;;;-143.74;100.00
32853;BME280;20515;51.704;5.700;2022-08-02T00:26:57;53643.72;;;-143.74;100.00
32853;BME280;20515;51.704;5.700;2022-08-02T00:29:22;53641.69;;;-143.74;100.00
32853;BME280;20515;51.704;5.700;2022-08-02T00:31:48;53643.72;;;-143.74;100.00
32853;BME280;20515;51.704;5.700;2022-08-02T00:34:13;53647.81;;;-143.74;100.00
32853;BME280;20515;51.704;5.700;2022-08-02T00:36:39;53637.59;;;-143.74;100.00
32853;BME280;20515;51.704;5.700;2022-08-02T00:39:04;53647.81;;;-143.74;100.00
32853;BME280;20515;51.704;5.700;2022-08-02T00:41:29;53643.72;;;-143.74;100.00
32853;BME280;20515;51.704;5.700;2022-08-02T00:43:55;53645.75;;;-143.74;100.00
32853;BME280;20515;51.704;5.700;2022-08-02T00:46:21;53645.75;;;-143.74;100.00
32853;BME280;20515;51.704;5.700;2022-08-02T00:48:47;53643.72;;;-143.74;100.00
32853;BME280;20515;51.704;5.700;2022-08-02T00:51:12;53641.69;;;-143.74;100.00
32853;BME280;20515;51.704;5.700;2022-08-02T00:53:38;53647.81;;;-143.74;100.00
32853;BME280;20515;51.704;5.700;2022-08-02T00:56:04;53643.72;;;-143.74;100.00
32853;BME280;20515;51.704;5.700;2022-08-02T00:58:29;53641.69;;;-143.74;100.00
32853;BME280;20515;51.704;5.700;2022-08-02T01:00:54;53647.81;;;-143.74;100.00
32853;BME280;20515;51.704;5.700;2022-08-02T01:03:25;53645.75;;;-143.74;100.00
32853;BME280;20515;51.704;5.700;2022-08-02T01:05:50;53643.72;;;-143.74;100.00
32853;BME280;20515;51.704;5.700;2022-08-02T01:08:15;53647.81;;;-143.74;100.00
32853;BME280;20515;51.704;5.700;2022-08-02T01:10:41;53643.72;;;-143.74;100.00
32853;BME280;20515;51.704;5.700;2022-08-02T01:13:06;53651.88;;;-143.74;100.00
32853;BME280;20515;51.704;5.700;2022-08-02T01:15:34;53647.81;;;-143.74;100.00
32853;BME280;20515;51.704;5.700;2022-08-02T01:18:06;53643.72;;;-143.74;100.00
32853;BME280;20515;51.704;5.700;2022-08-02T01:26:41;53641.69;;;-143.74;100.00
32853;BME280;20515;51.704;5.700;2022-08-02T01:29:17;53643.72;;;-143.74;100.00
32853;BME280;20515;51.704;5.700;2022-08-02T01:32:04;53645.75;;;-143.74;100.00
32853;BME280;20515;51.704;5.700;2022-08-02T01:37:19;53643.72;;;-143.74;100.00
32853;BME280;20515;51.704;5.700;2022-08-02T01:39:50;53645.75;;;-143.74;100.00
32853;BME280;20515;51.704;5.700;2022-08-02T01:42:17;53643.72;;;-143.74;100.00
32853;BME280;20515;51.704;5.700;2022-08-02T01:44:44;53641.69;;;-143.74;100.00
32853;BME280;20515;51.704;5.700;2022-08-02T01:47:16;53639.63;;;-143.74;100.00
32853;BME280;20515;51.704;5.700;2022-08-02T01:49:44;53647.81;;;-143.74;100.00
32853;BME280;20515;51.704;5.700;2022-08-02T01:52:12;53643.72;;;-143.74;100.00
32853;BME280;20515;51.704;5.700;2022-08-02T01:54:55;53643.72;;;-143.74;100.00
32853;BME280;20515;51.704;5.700;2022-08-02T01:57:25;53643.72;;;-143.74;100.00
32853;BME280;20515;51.704;5.700;2022-08-02T01:59:52;53643.72;;;-143.74;100.00
32853;BME280;20515;51.704;5.700;2022-08-02T02:02:20;53641.69;;;-143.74;100.00
32853;BME280;20515;51.704;5.700;2022-08-02T02:04:47;53645.75;;;-143.74;100.00
32853;BME280;20515;51.704;5.700;2022-08-02T02:07:14;53643.72;;;-143.74;100.00
32853;BME280;20515;51.704;5.700;2022-08-02T02:09:41;53641.69;;;-143.74;100.00
32853;BME280;20515;51.704;5.700;2022-08-02T02:12:08;53643.72;;;-143.74;100.00
32853;BME280;20515;51.704;5.700;2022-08-02T02:14:36;53647.81;;;-143.74;100.00
32853;BME280;20515;51.704;5.700;2022-08-02T02:17:02;53645.75;;;-143.74;100.00
32853;BME280;20515;51.704;5.700;2022-08-02T02:19:29;53643.72;;;-143.74;100.00
32853;BME280;20515;51.704;5.700;2022-08-02T02:21:56;53643.72;;;-143.74;100.00
32853;BME280;20515;51.704;5.700;2022-08-02T02:24:22;53647.81;;;-143.74;100.00
32853;BME280;20515;51.704;5.700;2022-08-02T02:26:47;53643.72;;;-143.74;100.00
32853;BME280;20515;51.704;5.700;2022-08-02T02:29:13;53645.75;;;-143.74;100.00
32853;BME280;20515;51.704;5.700;2022-08-02T02:31:43;53639.63;;;-143.74;100.00
32853;BME280;20515;51.704;5.700;2022-08-02T02:34:15;53639.63;;;-143.74;100.00
32853;BME280;20515;51.704;5.700;2022-08-02T02:36:46;53641.69;;;-143.74;100.00
32853;BME280;20515;51.704;5.700;2022-08-02T02:39:14;53639.63;;;-143.74;100.00
32853;BME280;20515;51.704;5.700;2022-08-02T02:41:41;53649.84;;;-143.74;100.00
32853;BME280;20515;51.704;5.700;2022-08-02T02:44:09;53641.69;;;-143.74;100.00
32853;BME280;20515;51.704;5.700;2022-08-02T02:46:37;53639.63;;;-143.74;100.00
32853;BME280;20515;51.704;5.700;2022-08-02T02:49:02;53641.69;;;-143.74;100.00
32853;BME280;20515;51.704;5.700;2022-08-02T02:51:28;53641.69;;;-143.74;100.00
32853;BME280;20515;51.704;5.700;2022-08-02T02:53:54;53645.75;;;-143.74;100.00
32853;BME280;20515;51.704;5.700;2022-08-02T02:56:21;53643.72;;;-143.74;100.00
32853;BME280;20515;51.704;5.700;2022-08-02T02:58:47;53645.75;;;-143.74;100.00
32853;BME280;20515;51.704;5.700;2022-08-02T03:01:13;53643.72;;;-143.74;100.00
32853;BME280;20515;51.704;5.700;2022-08-02T03:03:56;53645.75;;;-143.74;100.00
32853;BME280;20515;51.704;5.700;2022-08-02T03:06:22;53647.81;;;-143.74;100.00
32853;BME280;20515;51.704;5.700;2022-08-02T03:08:47;53645.75;;;-143.74;100.00
32853;BME280;20515;51.704;5.700;2022-08-02T03:11:13;53645.75;;;-143.74;100.00
32853;BME280;20515;51.704;5.700;2022-08-02T03:13:39;53643.72;;;-143.74;100.00
32853;BME280;20515;51.704;5.700;2022-08-02T03:16:05;53643.72;;;-143.74;100.00
32853;BME280;20515;51.704;5.700;2022-08-02T03:18:36;53641.69;;;-143.74;100.00
32853;BME280;20515;51.704;5.700;2022-08-02T03:21:07;53643.72;;;-143.74;100.00
32853;BME280;20515;51.704;5.700;2022-08-02T03:23:33;53645.75;;;-143.74;100.00
32853;BME280;20515;51.704;5.700;2022-08-02T03:25:59;53641.69;;;-143.74;100.00
32853;BME280;20515;51.704;5.700;2022-08-02T03:28:25;53645.75;;;-143.74;100.00
32853;BME280;20515;51.704;5.700;2022-08-02T03:30:51;53645.75;;;-143.74;100.00
32853;BME280;20515;51.704;5.700;2022-08-02T03:33:17;53643.72;;;-143.74;100.00
32853;BME280;20515;51.704;5.700;2022-08-02T03:35:44;53649.84;;;-143.74;100.00
32853;BME280;20515;51.704;5.700;2022-08-02T03:38:12;53645.75;;;-143.74;100.00
32853;BME280;20515;51.704;5.700;2022-08-02T03:40:38;53645.75;;;-143.74;100.00
32853;BME280;20515;51.704;5.700;2022-08-02T03:43:06;53641.69;;;-143.74;100.00
32853;BME280;20515;51.704;5.700;2022-08-02T03:45:33;53643.72;;;-143.74;100.00
32853;BME280;20515;51.704;5.700;2022-08-02T03:47:58;53643.72;;;-143.74;100.00
32853;BME280;20515;51.704;5.700;2022-08-02T03:50:25;53641.69;;;-143.74;100.00
32853;BME280;20515;51.704;5.700;2022-08-02T03:52:51;53660.06;;;-143.74;100.00
32853;BME280;20515;51.704;5.700;2022-08-02T03:55:16;53643.72;;;-143.74;100.00
32853;BME280;20515;51.704;5.700;2022-08-02T03:57:42;53639.63;;;-143.74;100.00
32853;BME280;20515;51.704;5.700;2022-08-02T04:00:08;53641.69;;;-143.74;100.00
32853;BME280;20515;51.704;5.700;2022-08-02T04:02:35;53645.75;;;-143.74;100.00
32853;BME280;20515;51.704;5.700;2022-08-02T04:05:00;53641.69;;;-143.74;100.00
32853;BME280;20515;51.704;5.700;2022-08-02T04:07:25;53643.72;;;-143.74;100.00
32853;BME280;20515;51.704;5.700;2022-08-02T04:09:51;53643.72;;;-143.74;100.00
32853;BME280;20515;51.704;5.700;2022-08-02T04:12:16;53641.69;;;-143.74;100.00
32853;BME280;20515;51.704;5.700;2022-08-02T04:14:41;53645.75;;;-143.74;100.00
32853;BME280;20515;51.704;5.700;2022-08-02T04:17:08;53645.75;;;-143.74;100.00
32853;BME280;20515;51.704;5.700;2022-08-02T04:19:41;53645.75;;;-143.74;100.00
32853;BME280;20515;51.704;5.700;2022-08-02T04:22:16;53645.75;;;-143.74;100.00
32853;BME280;20515;51.704;5.700;2022-08-02T04:24:46;53647.81;;;-143.74;100.00
32853;BME280;20515;51.704;5.700;2022-08-02T04:27:14;53645.75;;;-143.74;100.00
32853;BME280;20515;51.704;5.700;2022-08-02T04:29:40;53645.75;;;-143.74;100.00
32853;BME280;20515;51.704;5.700;2022-08-02T04:32:06;53641.69;;;-143.74;100.00
32853;BME280;20515;51.704;5.700;2022-08-02T04:34:31;53645.75;;;-143.74;100.00
32853;BME280;20515;51.704;5.700;2022-08-02T04:36:58;53645.75;;;-143.74;100.00
32853;BME280;20515;51.704;5.700;2022-08-02T04:39:24;53645.75;;;-143.74;100.00
32853;BME280;20515;51.704;5.700;2022-08-02T04:41:49;53645.75;;;-143.74;100.00
32853;BME280;20515;51.704;5.700;2022-08-02T04:44:15;53643.72;;;-143.74;100.00
32853;BME280;20515;51.704;5.700;2022-08-02T04:46:42;53645.75;;;-143.74;100.00
32853;BME280;20515;51.704;5.700;2022-08-02T04:49:07;53641.69;;;-143.74;100.00
32853;BME280;20515;51.704;5.700;2022-08-02T04:51:37;53643.72;;;-143.74;100.00
32853;BME280;20515;51.704;5.700;2022-08-02T04:54:03;53635.53;;;-143.74;100.00
32853;BME280;20515;51.704;5.700;2022-08-02T04:56:29;53643.72;;;-143.74;100.00
32853;BME280;20515;51.704;5.700;2022-08-02T04:58:54;53637.59;;;-143.74;100.00
32853;BME280;20515;51.704;5.700;2022-08-02T05:01:19;53641.69;;;-143.74;100.00
32853;BME280;20515;51.704;5.700;2022-08-02T05:03:45;53643.72;;;-143.74;100.00
32853;BME280;20515;51.704;5.700;2022-08-02T05:06:10;53643.72;;;-143.74;100.00
32853;BME280;20515;51.704;5.700;2022-08-02T05:08:35;53643.72;;;-143.74;100.00
32853;BME280;20515;51.704;5.700;2022-08-02T05:11:00;53645.75;;;-143.74;100.00
32853;BME280;20515;51.704;5.700;2022-08-02T05:13:26;53643.72;;;-143.74;100.00
32853;BME280;20515;51.704;5.700;2022-08-02T05:15:51;53645.75;;;-143.74;100.00
32853;BME280;20515;51.704;5.700;2022-08-02T05:18:16;53645.75;;;-143.74;100.00
32853;BME280;20515;51.704;5.700;2022-08-02T05:20:42;53643.72;;;-143.74;100.00
32853;BME280;20515;51.704;5.700;2022-08-02T05:23:08;53645.75;;;-143.74;100.00
32853;BME280;20515;51.704;5.700;2022-08-02T05:25:33;53645.75;;;-143.74;100.00
32853;BME280;20515;51.704;5.700;2022-08-02T05:27:58;53637.59;;;-143.74;100.00
32853;BME280;20515;51.704;5.700;2022-08-02T05:30:24;53643.72;;;-143.74;100.00
32853;BME280;20515;51.704;5.700;2022-08-02T05:32:49;53643.72;;;-143.74;100.00
32853;BME280;20515;51.704;5.700;2022-08-02T05:35:22;53641.69;;;-143.74;100.00
32853;BME280;20515;51.704;5.700;2022-08-02T05:37:49;53645.75;;;-143.74;100.00
32853;BME280;20515;51.704;5.700;2022-08-02T05:40:15;53643.72;;;-143.74;100.00
32853;BME280;20515;51.704;5.700;2022-08-02T05:42:41;53645.75;;;-143.74;100.00
32853;BME280;20515;51.704;5.700;2022-08-02T05:45:07;53645.75;;;-143.74;100.00
32853;BME280;20515;51.704;5.700;2022-08-02T05:47:33;53643.72;;;-143.74;100.00
32853;BME280;20515;51.704;5.700;2022-08-02T05:49:58;53645.75;;;-143.74;100.00
32853;BME280;20515;51.704;5.700;2022-08-02T05:52:25;53641.69;;;-143.74;100.00
32853;BME280;20515;51.704;5.700;2022-08-02T05:55:07;53643.72;;;-143.74;100.00
32853;BME280;20515;51.704;5.700;2022-08-02T06:00:13;53643.72;;;-143.74;100.00
32853;BME280;20515;51.704;5.700;2022-08-02T06:05:20;53643.72;;;-143.74;100.00
32853;BME280;20515;51.704;5.700;2022-08-02T06:07:47;53641.69;;;-143.74;100.00
32853;BME280;20515;51.704;5.700;2022-08-02T06:10:16;53643.72;;;-143.74;100.00
32853;BME280;20515;51.704;5.700;2022-08-02T06:12:53;53641.69;;;-143.74;100.00
32853;BME280;20515;51.704;5.700;2022-08-02T06:15:20;53643.72;;;-143.74;100.00
32853;BME280;20515;51.704;5.700;2022-08-02T06:17:46;53643.72;;;-143.74;100.00
32853;BME280;20515;51.704;5.700;2022-08-02T06:20:12;53645.75;;;-143.74;100.00
32853;BME280;20515;51.704;5.700;2022-08-02T06:22:40;53641.69;;;-143.74;100.00
32853;BME280;20515;51.704;5.700;2022-08-02T06:25:07;53641.69;;;-143.74;100.00
32853;BME280;20515;51.704;5.700;2022-08-02T06:27:33;53643.72;;;-143.74;100.00
32853;BME280;20515;51.704;5.700;2022-08-02T06:30:01;53641.69;;;-143.74;100.00
32853;BME280;20515;51.704;5.700;2022-08-02T06:32:26;53643.72;;;-143.74;100.00
32853;BME280;20515;51.704;5.700;2022-08-02T06:34:51;53643.72;;;-143.74;100.00
32853;BME280;20515;51.704;5.700;2022-08-02T06:40:04;53641.69;;;-143.74;100.00
32853;BME280;20515;51.704;5.700;2022-08-02T06:45:28;53643.72;;;-143.74;100.00
32853;BME280;20515;51.704;5.700;2022-08-02T06:47:54;53643.72;;;-143.74;100.00
32853;BME280;20515;51.704;5.700;2022-08-02T06:50:20;53641.69;;;-143.74;100.00
32853;BME280;20515;51.704;5.700;2022-08-02T06:52:45;53647.81;;;-143.74;100.00
32853;BME280;20515;51.704;5.700;2022-08-02T06:55:10;53643.72;;;-143.74;100.00
32853;BME280;20515;51.704;5.700;2022-08-02T06:57:36;53643.72;;;-143.74;100.00
32853;BME280;20515;51.704;5.700;2022-08-02T07:00:04;53639.63;;;-143.74;100.00
32853;BME280;20515;51.704;5.700;2022-08-02T07:02:36;53645.75;;;-143.74;100.00
32853;BME280;20515;51.704;5.700;2022-08-02T07:05:03;53643.72;;;-143.74;100.00
32853;BME280;20515;51.704;5.700;2022-08-02T07:07:28;53643.72;;;-143.74;100.00
32853;BME280;20515;51.704;5.700;2022-08-02T07:09:53;53645.75;;;-143.74;100.00
32853;BME280;20515;51.704;5.700;2022-08-02T07:12:19;53641.69;;;-143.74;100.00
32853;BME280;20515;51.704;5.700;2022-08-02T07:14:44;53643.72;;;-143.74;100.00
32853;BME280;20515;51.704;5.700;2022-08-02T07:17:11;53637.59;;;-143.74;100.00
32853;BME280;20515;51.704;5.700;2022-08-02T07:19:36;53647.81;;;-143.74;100.00
32853;BME280;20515;51.704;5.700;2022-08-02T07:22:01;53643.72;;;-143.74;100.00
32853;BME280;20515;51.704;5.700;2022-08-02T07:24:27;53643.72;;;-143.74;100.00
32853;BME280;20515;51.704;5.700;2022-08-02T07:26:52;53641.69;;;-143.74;100.00
32853;BME280;20515;51.704;5.700;2022-08-02T07:29:17;53639.63;;;-143.74;100.00
32853;BME280;20515;51.704;5.700;2022-08-02T07:31:43;53643.72;;;-143.74;100.00
32853;BME280;20515;51.704;5.700;2022-08-02T07:34:08;53645.75;;;-143.74;100.00
32853;BME280;20515;51.704;5.700;2022-08-02T07:36:33;53643.72;;;-143.74;100.00
32853;BME280;20515;51.704;5.700;2022-08-02T07:38:59;53641.69;;;-143.74;100.00
32853;BME280;20515;51.704;5.700;2022-08-02T07:41:24;53643.72;;;-143.74;100.00
32853;BME280;20515;51.704;5.700;2022-08-02T07:43:49;53645.75;;;-143.74;100.00
32853;BME280;20515;51.704;5.700;2022-08-02T07:46:15;53639.63;;;-143.74;100.00
32853;BME280;20515;51.704;5.700;2022-08-02T07:48:40;53639.63;;;-143.74;100.00
32853;BME280;20515;51.704;5.700;2022-08-02T07:51:06;53641.69;;;-143.74;100.00
32853;BME280;20515;51.704;5.700;2022-08-02T07:53:31;53643.72;;;-143.74;100.00
32853;BME280;20515;51.704;5.700;2022-08-02T07:55:56;53643.72;;;-143.74;100.00
32853;BME280;20515;51.704;5.700;2022-08-02T07:58:21;53643.72;;;-143.74;100.00
32853;BME280;20515;51.704;5.700;2022-08-02T08:00:47;53641.69;;;-143.74;100.00
32853;BME280;20515;51.704;5.700;2022-08-02T08:03:12;53643.72;;;-143.74;100.00
32853;BME280;20515;51.704;5.700;2022-08-02T08:05:37;53645.75;;;-143.74;100.00
32853;BME280;20515;51.704;5.700;2022-08-02T08:08:03;53641.69;;;-143.74;100.00
32853;BME280;20515;51.704;5.700;2022-08-02T08:10:30;53637.59;;;-143.74;100.00
32853;BME280;20515;51.704;5.700;2022-08-02T08:12:56;53643.72;;;-143.74;100.00
32853;BME280;20515;51.704;5.700;2022-08-02T08:15:21;53641.69;;;-143.74;100.00
32853;BME280;20515;51.704;5.700;2022-08-02T08:17:47;53641.69;;;-143.74;100.00
32853;BME280;20515;51.704;5.700;2022-08-02T08:20:12;53641.69;;;-143.74;100.00
32853;BME280;20515;51.704;5.700;2022-08-02T08:22:37;53641.69;;;-143.74;100.00
32853;BME280;20515;51.704;5.700;2022-08-02T08:25:03;53641.69;;;-143.74;100.00
32853;BME280;20515;51.704;5.700;2022-08-02T08:27:28;53641.69;;;-143.74;100.00
32853;BME280;20515;51.704;5.700;2022-08-02T08:29:53;53637.59;;;-143.74;100.00
32853;BME280;20515;51.704;5.700;2022-08-02T08:32:19;53641.69;;;-143.74;100.00
32853;BME280;20515;51.704;5.700;2022-08-02T08:34:45;53645.75;;;-143.74;100.00
32853;BME280;20515;51.704;5.700;2022-08-02T08:37:11;53643.72;;;-143.74;100.00
32853;BME280;20515;51.704;5.700;2022-08-02T08:39:36;53643.72;;;-143.74;100.00
32853;BME280;20515;51.704;5.700;2022-08-02T08:42:07;53643.72;;;-143.74;100.00
32853;BME280;20515;51.704;5.700;2022-08-02T08:44:34;53641.69;;;-143.74;100.00
32853;BME280;20515;51.704;5.700;2022-08-02T08:47:02;53639.63;;;-143.74;100.00
32853;BME280;20515;51.704;5.700;2022-08-02T08:49:31;53645.75;;;-143.74;100.00
32853;BME280;20515;51.704;5.700;2022-08-02T08:52:03;53637.59;;;-143.74;100.00
32853;BME280;20515;51.704;5.700;2022-08-02T08:54:30;53641.69;;;-143.74;100.00
32853;BME280;20515;51.704;5.700;2022-08-02T08:56:56;53637.59;;;-143.74;100.00
32853;BME280;20515;51.704;5.700;2022-08-02T08:59:21;53641.69;;;-143.74;100.00
32853;BME280;20515;51.704;5.700;2022-08-02T09:01:48;53641.69;;;-143.74;100.00
32853;BME280;20515;51.704;5.700;2022-08-02T09:04:14;53643.72;;;-143.74;100.00
32853;BME280;20515;51.704;5.700;2022-08-02T09:06:39;53641.69;;;-143.74;100.00
32853;BME280;20515;51.704;5.700;2022-08-02T09:09:05;53639.63;;;-143.74;100.00
32853;BME280;20515;51.704;5.700;2022-08-02T09:11:30;53639.63;;;-143.74;100.00
32853;BME280;20515;51.704;5.700;2022-08-02T09:13:58;53645.75;;;-143.74;100.00
32853;BME280;20515;51.704;5.700;2022-08-02T09:16:27;53645.75;;;-143.74;100.00
32853;BME280;20515;51.704;5.700;2022-08-02T09:18:53;53637.59;;;-143.74;100.00
32853;BME280;20515;51.704;5.700;2022-08-02T09:21:19;53643.72;;;-143.74;100.00
32853;BME280;20515;51.704;5.700;2022-08-02T09:23:47;53639.63;;;-143.74;100.00
32853;BME280;20515;51.704;5.700;2022-08-02T09:26:23;53641.69;;;-143.74;90.66
32853;BME280;20515;51.704;5.700;2022-08-02T09:28:50;53641.69;;;-143.74;91.72
32853;BME280;20515;51.704;5.700;2022-08-02T09:31:22;53643.72;;;-143.74;88.37
32853;BME280;20515;51.704;5.700;2022-08-02T09:33:53;53641.69;;;-143.74;87.33
32853;BME280;20515;51.704;5.700;2022-08-02T09:36:19;53641.69;;;-143.74;87.48
32853;BME280;20515;51.704;5.700;2022-08-02T09:39:00;53637.59;;;-143.74;82.49
32853;BME280;20515;51.704;5.700;2022-08-02T09:41:30;53641.69;;;-143.74;82.46
32853;BME280;20515;51.704;5.700;2022-08-02T09:43:56;53641.69;;;-143.74;78.63
32853;BME280;20515;51.704;5.700;2022-08-02T09:46:26;53643.72;;;-143.74;77.94
32853;BME280;20515;51.704;5.700;2022-08-02T09:48:55;53639.63;;;-143.74;73.38
32853;BME280;20515;51.704;5.700;2022-08-02T09:51:29;53637.59;;;-143.74;77.52
32853;BME280;20515;51.704;5.700;2022-08-02T09:53:59;53641.69;;;-143.74;74.73
32853;BME280;20515;51.704;5.700;2022-08-02T09:56:27;53637.59;;;-143.74;67.64
32853;BME280;20515;51.704;5.700;2022-08-02T09:58:53;53643.72;;;-143.74;70.32
32853;BME280;20515;51.704;5.700;2022-08-02T10:01:29;53639.63;;;-143.74;68.56
32853;BME280;20515;51.704;5.700;2022-08-02T10:04:02;53639.63;;;-143.74;69.19
32853;BME280;20515;51.704;5.700;2022-08-02T10:06:28;53635.53;;;-143.74;70.30
32853;BME280;20515;51.704;5.700;2022-08-02T10:08:54;53637.59;;;-143.74;69.25
32853;BME280;20515;51.704;5.700;2022-08-02T10:11:21;53643.72;;;-143.74;71.31
32853;BME280;20515;51.704;5.700;2022-08-02T10:13:48;53643.72;;;-143.74;70.39
32853;BME280;20515;51.704;5.700;2022-08-02T10:16:15;53639.63;;;-143.74;69.76
32853;BME280;20515;51.704;5.700;2022-08-02T10:18:41;53641.69;;;-143.74;67.19
32853;BME280;20515;51.704;5.700;2022-08-02T10:21:13;53639.63;;;-143.74;68.66
32853;BME280;20515;51.704;5.700;2022-08-02T10:23:42;53639.63;;;-143.74;59.24
32853;BME280;20515;51.704;5.700;2022-08-02T10:26:08;53643.72;;;-143.74;61.27
32853;BME280;20515;51.704;5.700;2022-08-02T10:28:33;53639.63;;;-143.74;57.80
32853;BME280;20515;51.704;5.700;2022-08-02T10:31:01;53643.72;;;-143.74;63.09
32853;BME280;20515;51.704;5.700;2022-08-02T10:33:28;53639.63;;;-143.74;56.94
32853;BME280;20515;51.704;5.700;2022-08-02T10:35:55;53641.69;;;-143.74;56.52
32853;BME280;20515;51.704;5.700;2022-08-02T10:38:23;53639.63;;;-143.74;55.06
32853;BME280;20515;51.704;5.700;2022-08-02T10:46:31;53641.69;;;-143.74;56.84
32853;BME280;20515;51.704;5.700;2022-08-02T10:49:15;53641.69;;;-143.74;61.65
32853;BME280;20515;51.704;5.700;2022-08-02T10:54:32;53641.69;;;-143.74;64.01
32853;BME280;20515;51.704;5.700;2022-08-02T10:56:59;53641.69;;;-143.74;59.74
32853;BME280;20515;51.704;5.700;2022-08-02T10:59:28;53641.69;;;-143.74;61.26
32853;BME280;20515;51.704;5.700;2022-08-02T11:01:55;53641.69;;;-143.74;63.87
32853;BME280;20515;51.704;5.700;2022-08-02T11:07:15;53637.59;;;-143.74;45.60
32853;BME280;20515;51.704;5.700;2022-08-02T11:09:46;53639.63;;;-143.74;49.79
32853;BME280;20515;51.704;5.700;2022-08-02T11:12:16;53641.69;;;-143.74;54.89
32853;BME280;20515;51.704;5.700;2022-08-02T11:14:44;53639.63;;;-143.74;41.73
32853;BME280;20515;51.704;5.700;2022-08-02T11:17:15;53643.72;;;-143.74;44.56
32853;BME280;20515;51.704;5.700;2022-08-02T11:22:38;53641.69;;;-143.74;45.68
32853;BME280;20515;51.704;5.700;2022-08-02T11:28:10;53641.69;;;-143.74;43.83
32853;BME280;20515;51.704;5.700;2022-08-02T11:30:35;53643.72;;;-143.74;44.47
32853;BME280;20515;51.704;5.700;2022-08-02T11:33:01;53641.69;;;-143.74;45.17
32853;BME280;20515;51.704;5.700;2022-08-02T11:35:37;53641.69;;;-143.74;45.12
32853;BME280;20515;51.704;5.700;2022-08-02T11:38:18;53643.72;;;-143.74;50.92
32853;BME280;20515;51.704;5.700;2022-08-02T11:40:44;53639.63;;;-143.74;44.07
32853;BME280;20515;51.704;5.700;2022-08-02T11:43:22;53641.69;;;-143.74;46.70
32853;BME280;20515;51.704;5.700;2022-08-02T11:45:49;53641.69;;;-143.74;53.18
32853;BME280;20515;51.704;5.700;2022-08-02T11:48:32;53641.69;;;-143.74;46.48
32853;BME280;20515;51.704;5.700;2022-08-02T11:51:27;53643.72;;;-143.74;54.96
32853;BME280;20515;51.704;5.700;2022-08-02T11:53:53;53641.69;;;-143.74;45.32
32853;BME280;20515;51.704;5.700;2022-08-02T11:56:26;53643.72;;;-143.74;46.86
32853;BME280;20515;51.704;5.700;2022-08-02T12:01:27;53639.63;;;-143.74;44.97
32853;BME280;20515;51.704;5.700;2022-08-02T12:03:54;53641.69;;;-143.74;42.88
32853;BME280;20515;51.704;5.700;2022-08-02T12:06:24;53643.72;;;-143.74;44.35
32853;BME280;20515;51.704;5.700;2022-08-02T12:08:49;53639.63;;;-143.74;43.75
32853;BME280;20515;51.704;5.700;2022-08-02T12:11:18;53639.63;;;-143.74;44.87
32853;BME280;20515;51.704;5.700;2022-08-02T12:13:44;53641.69;;;-143.74;49.59
32853;BME280;20515;51.704;5.700;2022-08-02T12:16:13;53635.53;;;-143.74;46.94
32853;BME280;20515;51.704;5.700;2022-08-02T12:18:57;53637.59;;;-143.74;46.08
32853;BME280;20515;51.704;5.700;2022-08-02T12:21:41;53641.69;;;-143.74;49.34
32853;BME280;20515;51.704;5.700;2022-08-02T12:24:06;53639.63;;;-143.74;47.31
32853;BME280;20515;51.704;5.700;2022-08-02T12:26:45;53639.63;;;-143.74;45.41
32853;BME280;20515;51.704;5.700;2022-08-02T12:29:10;53641.69;;;-143.74;44.09
32853;BME280;20515;51.704;5.700;2022-08-02T12:31:46;53643.72;;;-143.74;42.57
32853;BME280;20515;51.704;5.700;2022-08-02T12:34:17;53639.63;;;-143.74;42.36
32853;BME280;20515;51.704;5.700;2022-08-02T12:37:03;53641.69;;;-143.74;43.39
32853;BME280;20515;51.704;5.700;2022-08-02T12:39:45;53641.69;;;-143.74;47.74
32853;BME280;20515;51.704;5.700;2022-08-02T12:42:14;53637.59;;;-143.74;53.49
32853;BME280;20515;51.704;5.700;2022-08-02T12:44:53;53641.69;;;-143.74;50.58
32853;BME280;20515;51.704;5.700;2022-08-02T12:47:19;53639.63;;;-143.74;44.13
32853;BME280;20515;51.704;5.700;2022-08-02T12:50:31;53641.69;;;-143.74;50.57
32853;BME280;20515;51.704;5.700;2022-08-02T12:52:31;53641.69;;;-143.74;45.77
32853;BME280;20515;51.704;5.700;2022-08-02T12:54:56;53641.69;;;-143.74;46.21
32853;BME280;20515;51.704;5.700;2022-08-02T12:57:21;53637.59;;;-143.74;44.26
32853;BME280;20515;51.704;5.700;2022-08-02T12:59:52;53643.72;;;-143.74;47.28
32853;BME280;20515;51.704;5.700;2022-08-02T13:02:18;53639.63;;;-143.74;45.51
32853;BME280;20515;51.704;5.700;2022-08-02T13:04:44;53639.63;;;-143.74;46.20
32853;BME280;20515;51.704;5.700;2022-08-02T13:07:10;53639.63;;;-143.74;44.49
32853;BME280;20515;51.704;5.700;2022-08-02T13:09:37;53641.69;;;-143.74;45.35
32853;BME280;20515;51.704;5.700;2022-08-02T13:12:04;53641.69;;;-143.74;43.80
32853;BME280;20515;51.704;5.700;2022-08-02T13:14:30;53639.63;;;-143.74;45.19